createdAt,value
2018-05-02T00:00:57.354Z,10.00
2018-05-02T00:03:25.606Z,9.90
2018-05-02T00:05:53.894Z,9.80
2018-05-02T00:08:22.177Z,9.80
2018-05-02T00:10:50.528Z,9.80
2018-05-02T00:13:18.867Z,9.80
2018-05-02T00:15:47.147Z,9.80
2018-05-02T00:18:14.654Z,9.80
2018-05-02T00:20:42.943Z,9.80
2018-05-02T00:23:11.190Z,9.80
2018-05-02T00:25:39.471Z,9.80
2018-05-02T00:28:07.757Z,9.80
2018-05-02T00:30:36.038Z,9.70
2018-05-02T00:33:04.305Z,9.50
2018-05-02T00:35:32.601Z,9.50
2018-05-02T00:38:00.873Z,9.50
2018-05-02T00:40:29.131Z,9.60
2018-05-02T00:42:57.404Z,9.50
2018-05-02T00:45:25.663Z,9.50
2018-05-02T00:47:53.943Z,9.40
2018-05-02T00:50:22.193Z,9.40
2018-05-02T00:52:50.470Z,9.30
2018-05-02T00:55:18.709Z,9.30
2018-05-02T00:57:46.957Z,9.40
2018-05-02T01:00:15.261Z,9.30
2018-05-02T01:02:43.518Z,9.30
2018-05-02T01:05:11.040Z,9.30
2018-05-02T01:07:39.311Z,9.30
2018-05-02T01:10:07.661Z,9.30
2018-05-02T01:12:36.000Z,9.30
2018-05-02T01:15:04.253Z,9.20
2018-05-02T01:17:32.526Z,9.20
2018-05-02T01:20:00.806Z,9.20
2018-05-02T01:22:29.042Z,9.20
2018-05-02T01:24:57.338Z,9.30
2018-05-02T01:27:25.577Z,9.20
2018-05-02T01:29:53.874Z,9.20
2018-05-02T01:32:22.147Z,9.30
2018-05-02T01:34:50.414Z,9.20
2018-05-02T01:37:18.670Z,9.20
2018-05-02T01:39:46.971Z,9.30
2018-05-02T01:42:15.246Z,9.30
2018-05-02T01:44:43.544Z,9.30
2018-05-02T01:47:11.822Z,9.20
2018-05-02T01:49:40.089Z,9.30
2018-05-02T01:52:08.372Z,9.20
2018-05-02T01:54:36.654Z,9.30
2018-05-02T01:57:04.916Z,9.30
2018-05-02T01:59:33.195Z,9.30
2018-05-02T02:02:01.460Z,9.30
2018-05-02T02:04:29.751Z,9.30
2018-05-02T02:06:58.051Z,9.20
2018-05-02T02:09:25.579Z,9.20
2018-05-02T02:11:53.878Z,9.20
2018-05-02T02:14:22.207Z,9.10
2018-05-02T02:16:50.489Z,9.00
2018-05-02T02:19:18.743Z,9.00
2018-05-02T02:21:47.023Z,9.10
2018-05-02T02:24:15.274Z,9.10
2018-05-02T02:26:43.574Z,9.20
2018-05-02T02:29:11.819Z,9.20
2018-05-02T02:31:39.342Z,9.20
2018-05-02T02:34:07.732Z,9.40
2018-05-02T02:36:35.959Z,9.50
2018-05-02T02:39:04.789Z,9.60
2018-05-02T02:41:33.119Z,9.60
2018-05-02T02:44:01.378Z,9.60
2018-05-02T02:46:28.874Z,9.60
2018-05-02T02:48:57.158Z,9.70
2018-05-02T02:51:25.424Z,9.70
2018-05-02T02:53:53.690Z,9.70
2018-05-02T02:56:21.978Z,9.80
2018-05-02T02:58:50.347Z,9.80
2018-05-02T03:01:18.607Z,9.80
2018-05-02T03:03:46.896Z,9.80
2018-05-02T03:06:15.210Z,9.80
2018-05-02T03:08:43.523Z,9.70
2018-05-02T03:11:11.026Z,9.70
2018-05-02T03:13:39.301Z,9.70
2018-05-02T03:16:07.557Z,9.70
2018-05-02T03:18:35.838Z,9.70
2018-05-02T03:21:04.079Z,9.60
2018-05-02T03:23:32.397Z,9.50
2018-05-02T03:26:00.650Z,9.40
2018-05-02T03:28:28.909Z,9.30
2018-05-02T03:30:56.458Z,9.30
2018-05-02T03:33:24.698Z,9.30
2018-05-02T03:35:52.978Z,9.40
2018-05-02T03:38:21.305Z,9.40
2018-05-02T03:40:49.607Z,9.40
2018-05-02T03:43:17.863Z,9.30
2018-05-02T03:45:46.134Z,9.30
2018-05-02T03:48:14.366Z,9.30
2018-05-02T03:50:42.661Z,9.30
2018-05-02T03:53:10.936Z,9.30
2018-05-02T03:55:39.253Z,9.30
2018-05-02T03:58:07.502Z,9.30
2018-05-02T04:00:47.160Z,9.30
2018-05-02T04:03:26.856Z,9.30
2018-05-02T04:06:11.382Z,9.30
2018-05-02T04:08:39.720Z,9.30
2018-05-02T04:11:08.025Z,9.20
2018-05-02T04:13:36.346Z,9.20
2018-05-02T04:16:04.662Z,9.30
2018-05-02T04:18:32.918Z,9.30
2018-05-02T04:21:01.211Z,9.30
2018-05-02T04:23:29.499Z,9.30
2018-05-02T04:25:57.754Z,9.40
2018-05-02T04:28:26.056Z,9.40
2018-05-02T04:30:54.319Z,9.50
2018-05-02T04:33:22.654Z,9.70
2018-05-02T04:35:50.887Z,9.70
2018-05-02T04:38:19.154Z,9.70
2018-05-02T04:40:47.413Z,9.80
2018-05-02T04:43:15.719Z,9.90
2018-05-02T04:45:43.969Z,9.90
2018-05-02T04:48:12.270Z,10.00
2018-05-02T04:50:40.564Z,10.10
2018-05-02T04:53:08.854Z,10.10
2018-05-02T04:55:37.122Z,10.10
2018-05-02T04:58:05.384Z,10.10
2018-05-02T05:00:33.670Z,10.00
2018-05-02T05:03:01.931Z,9.90
2018-05-02T05:05:30.222Z,9.90
2018-05-02T05:07:58.474Z,10.00
2018-05-02T05:10:26.758Z,9.90
2018-05-02T05:12:55.047Z,9.80
2018-05-02T05:15:23.330Z,9.80
2018-05-02T05:17:51.610Z,9.80
2018-05-02T05:20:19.925Z,9.80
2018-05-02T05:22:48.197Z,9.80
2018-05-02T05:25:16.510Z,9.80
2018-05-02T05:27:44.790Z,9.70
2018-05-02T05:30:13.099Z,9.60
2018-05-02T05:32:41.371Z,9.60
2018-05-02T05:35:09.756Z,9.60
2018-05-02T05:37:38.030Z,9.70
2018-05-02T05:40:06.303Z,9.60
2018-05-02T05:42:34.614Z,9.60
2018-05-02T05:45:02.880Z,9.60
2018-05-02T05:47:31.159Z,9.60
2018-05-02T05:49:59.417Z,9.60
2018-05-02T05:52:27.710Z,9.60
2018-05-02T05:54:55.985Z,9.70
2018-05-02T05:57:24.241Z,9.70
2018-05-02T05:59:52.533Z,9.90
2018-05-02T06:02:20.842Z,10.00
2018-05-02T06:04:49.133Z,10.10
2018-05-02T06:07:17.435Z,10.20
2018-05-02T06:09:45.671Z,10.30
2018-05-02T06:12:13.973Z,10.30
2018-05-02T06:14:42.294Z,10.40
2018-05-02T06:17:10.542Z,10.50
2018-05-02T06:19:38.834Z,10.50
2018-05-02T06:22:07.129Z,10.40
2018-05-02T06:24:34.686Z,10.40
2018-05-02T06:27:02.965Z,10.30
2018-05-02T06:29:31.270Z,10.30
2018-05-02T06:31:59.565Z,10.40
2018-05-02T06:34:27.869Z,10.40
2018-05-02T06:36:56.118Z,10.50
2018-05-02T06:39:24.423Z,10.50
2018-05-02T06:41:52.714Z,10.50
2018-05-02T06:44:20.997Z,10.40
2018-05-02T06:46:49.266Z,10.40
2018-05-02T06:49:17.687Z,10.50
2018-05-02T06:51:45.958Z,10.50
2018-05-02T06:54:14.242Z,10.60
2018-05-02T06:56:41.777Z,10.60
2018-05-02T06:59:10.059Z,10.70
2018-05-02T07:01:38.351Z,10.70
2018-05-02T07:04:05.947Z,10.70
2018-05-02T07:06:34.264Z,10.70
2018-05-02T07:09:02.617Z,10.70
2018-05-02T07:11:30.939Z,10.80
2018-05-02T07:13:59.207Z,10.90
2018-05-02T07:16:27.520Z,10.90
2018-05-02T07:18:55.802Z,10.90
2018-05-02T07:21:24.058Z,11.00
2018-05-02T07:23:52.338Z,11.00
2018-05-02T07:26:20.582Z,11.00
2018-05-02T07:28:48.887Z,11.00
2018-05-02T07:31:17.159Z,11.00
2018-05-02T07:33:45.447Z,11.00
2018-05-02T07:36:13.778Z,11.10
2018-05-02T07:38:42.079Z,11.10
2018-05-02T07:41:10.370Z,11.20
2018-05-02T07:43:38.673Z,11.00
2018-05-02T07:46:06.999Z,11.00
2018-05-02T07:48:34.590Z,11.00
2018-05-02T07:51:02.858Z,11.10
2018-05-02T07:53:31.114Z,11.20
2018-05-02T07:55:59.403Z,11.30
2018-05-02T07:58:27.669Z,11.40
2018-05-02T08:00:55.957Z,11.40
2018-05-02T08:03:24.208Z,11.40
2018-05-02T08:05:52.503Z,11.40
2018-05-02T08:08:20.823Z,11.50
2018-05-02T08:10:49.134Z,11.50
2018-05-02T08:13:17.473Z,11.60
2018-05-02T08:15:45.762Z,11.60
2018-05-02T08:18:14.067Z,11.70
2018-05-02T08:20:42.354Z,11.70
2018-05-02T08:23:10.662Z,11.70
2018-05-02T08:25:38.933Z,11.80
2018-05-02T08:28:07.234Z,11.90
2018-05-02T08:30:35.490Z,12.00
2018-05-02T08:33:03.852Z,12.00
2018-05-02T08:35:32.133Z,12.00
2018-05-02T08:38:00.403Z,12.00
2018-05-02T08:40:27.926Z,12.00
2018-05-02T08:42:56.224Z,12.20
2018-05-02T08:45:24.482Z,12.40
2018-05-02T08:47:53.581Z,12.50
2018-05-02T08:50:25.325Z,12.50
2018-05-02T08:52:53.572Z,12.60
2018-05-02T08:55:21.874Z,12.60
2018-05-02T08:57:50.148Z,12.60
2018-05-02T09:00:18.438Z,12.60
2018-05-02T09:02:46.693Z,12.50
2018-05-02T09:05:14.953Z,12.50
2018-05-02T09:07:43.379Z,12.50
2018-05-02T09:10:11.950Z,12.50
2018-05-02T09:12:40.295Z,12.50
2018-05-02T09:15:08.601Z,12.60
2018-05-02T09:17:36.883Z,12.70
2018-05-02T09:20:05.179Z,12.90
2018-05-02T09:22:33.463Z,13.00
2018-05-02T09:25:01.766Z,13.00
2018-05-02T09:27:30.080Z,13.10
2018-05-02T09:29:58.339Z,13.20
2018-05-02T09:32:26.631Z,13.30
2018-05-02T09:34:54.870Z,13.40
2018-05-02T09:37:23.214Z,13.40
2018-05-02T09:39:51.466Z,13.40
2018-05-02T09:42:19.763Z,13.50
2018-05-02T09:44:48.023Z,13.50
2018-05-02T10:08:51.946Z,13.80
2018-05-02T10:11:26.101Z,13.90
2018-05-02T10:16:45.233Z,13.80
2018-05-02T10:19:21.924Z,14.00
2018-05-02T10:21:58.571Z,14.10
2018-05-02T10:24:36.630Z,14.20
2018-05-02T10:27:18.767Z,14.50
2018-05-02T10:29:53.717Z,14.50
2018-05-02T10:32:31.481Z,14.60
2018-05-02T10:35:05.203Z,14.60
2018-05-02T10:37:45.587Z,14.70
2018-05-02T10:40:20.406Z,14.90
2018-05-02T10:42:52.555Z,15.00
2018-05-02T10:48:10.054Z,15.20
2018-05-02T10:50:43.971Z,15.20
2018-05-02T10:53:23.364Z,15.30
2018-05-02T11:05:04.111Z,15.30
2018-05-02T12:17:08.836Z,18.50
2018-05-02T13:11:22.773Z,18.70
2018-05-02T13:19:03.295Z,18.70
2018-05-02T14:21:10.313Z,18.50
2018-05-02T14:34:23.529Z,18.20
2018-05-02T15:12:11.046Z,18.60
2018-05-02T15:17:19.920Z,18.60
2018-05-02T15:57:29.186Z,18.20
2018-05-02T17:39:29.238Z,17.90
2018-05-02T17:55:50.709Z,18.00
2018-05-02T18:01:13.843Z,18.10
2018-05-02T18:37:34.862Z,16.80
2018-05-02T19:39:37.158Z,15.70
2018-05-02T19:46:50.765Z,15.60
2018-05-02T20:29:23.389Z,15.10
2018-05-02T23:17:08.807Z,13.90
